sensor_id;sensor_type;location;lat;lon;timestamp;temperature;humidity
46400;DHT22;32104;50.838;4.388;2023-01-20T00:50:00;2.80;99.90
46400;DHT22;32104;50.838;4.388;2023-01-20T00:52:34;2.90;99.90
46400;DHT22;32104;50.838;4.388;2023-01-20T00:55:14;2.80;99.90
46400;DHT22;32104;50.838;4.388;2023-01-20T00:57:40;2.90;99.90
46400;DHT22;32104;50.838;4.388;2023-01-20T01:00:10;2.80;99.90
46400;DHT22;32104;50.838;4.388;2023-01-20T01:02:37;2.60;99.90
46400;DHT22;32104;50.838;4.388;2023-01-20T01:05:05;2.60;99.90
46400;DHT22;32104;50.838;4.388;2023-01-20T01:07:32;2.50;99.90
46400;DHT22;32104;50.838;4.388;2023-01-20T01:10:03;2.50;99.90
46400;DHT22;32104;50.838;4.388;2023-01-20T01:12:32;2.60;99.90
46400;DHT22;32104;50.838;4.388;2023-01-20T01:15:23;2.60;99.90
46400;DHT22;32104;50.838;4.388;2023-01-20T01:17:53;2.50;99.90
46400;DHT22;32104;50.838;4.388;2023-01-20T01:20:20;2.40;99.90
46400;DHT22;32104;50.838;4.388;2023-01-20T01:22:51;2.50;99.90
46400;DHT22;32104;50.838;4.388;2023-01-20T01:25:18;2.50;99.90
46400;DHT22;32104;50.838;4.388;2023-01-20T01:27:49;2.50;99.90
46400;DHT22;32104;50.838;4.388;2023-01-20T01:30:15;2.60;99.90
46400;DHT22;32104;50.838;4.388;2023-01-20T01:32:41;2.50;99.90
46400;DHT22;32104;50.838;4.388;2023-01-20T01:35:10;2.40;99.90
46400;DHT22;32104;50.838;4.388;2023-01-20T01:37:36;2.30;99.90
46400;DHT22;32104;50.838;4.388;2023-01-20T01:40:05;2.30;99.90
46400;DHT22;32104;50.838;4.388;2023-01-20T01:42:31;2.40;99.90
46400;DHT22;32104;50.838;4.388;2023-01-20T01:47:49;2.30;99.90
46400;DHT22;32104;50.838;4.388;2023-01-20T01:50:20;2.40;99.90
46400;DHT22;32104;50.838;4.388;2023-01-20T01:52:50;2.40;99.90
46400;DHT22;32104;50.838;4.388;2023-01-20T01:55:17;2.40;99.90
46400;DHT22;32104;50.838;4.388;2023-01-20T01:57:43;2.50;99.90
46400;DHT22;32104;50.838;4.388;2023-01-20T02:00:10;2.50;99.90
46400;DHT22;32104;50.838;4.388;2023-01-20T02:02:37;2.50;99.90
46400;DHT22;32104;50.838;4.388;2023-01-20T02:05:09;2.50;99.90
46400;DHT22;32104;50.838;4.388;2023-01-20T02:07:38;2.50;99.90
46400;DHT22;32104;50.838;4.388;2023-01-20T02:10:17;2.50;99.90
46400;DHT22;32104;50.838;4.388;2023-01-20T02:12:44;2.40;99.90
46400;DHT22;32104;50.838;4.388;2023-01-20T02:15:17;2.50;99.90
46400;DHT22;32104;50.838;4.388;2023-01-20T02:21:06;2.40;99.90
46400;DHT22;32104;50.838;4.388;2023-01-20T02:24:05;2.50;99.90
46400;DHT22;32104;50.838;4.388;2023-01-20T02:26:49;2.40;99.90
46400;DHT22;32104;50.838;4.388;2023-01-20T02:29:45;2.40;99.90
46400;DHT22;32104;50.838;4.388;2023-01-20T02:32:36;2.30;99.90
46400;DHT22;32104;50.838;4.388;2023-01-20T02:35:25;2.30;99.90
46400;DHT22;32104;50.838;4.388;2023-01-20T02:38:09;2.50;99.90
46400;DHT22;32104;50.838;4.388;2023-01-20T02:41:06;2.40;99.90
46400;DHT22;32104;50.838;4.388;2023-01-20T02:46:34;2.40;99.90
46400;DHT22;32104;50.838;4.388;2023-01-20T02:51:57;2.50;99.90
46400;DHT22;32104;50.838;4.388;2023-01-20T02:54:34;2.40;99.90
46400;DHT22;32104;50.838;4.388;2023-01-20T02:57:03;2.50;99.90
46400;DHT22;32104;50.838;4.388;2023-01-20T02:59:43;2.50;99.90
46400;DHT22;32104;50.838;4.388;2023-01-20T03:02:19;2.50;99.90
46400;DHT22;32104;50.838;4.388;2023-01-20T03:04:50;2.70;99.90
46400;DHT22;32104;50.838;4.388;2023-01-20T03:07:20;2.70;99.90
46400;DHT22;32104;50.838;4.388;2023-01-20T03:09:50;2.60;99.90
46400;DHT22;32104;50.838;4.388;2023-01-20T03:12:56;2.50;99.90
46400;DHT22;32104;50.838;4.388;2023-01-20T03:15:36;2.50;99.90
46400;DHT22;32104;50.838;4.388;2023-01-20T03:18:08;2.50;99.90
46400;DHT22;32104;50.838;4.388;2023-01-20T03:20:35;2.40;99.90
46400;DHT22;32104;50.838;4.388;2023-01-20T03:23:01;2.50;99.90
46400;DHT22;32104;50.838;4.388;2023-01-20T03:25:28;2.50;99.90
46400;DHT22;32104;50.838;4.388;2023-01-20T03:27:54;2.50;99.90
46400;DHT22;32104;50.838;4.388;2023-01-20T03:30:20;2.50;99.90
46400;DHT22;32104;50.838;4.388;2023-01-20T03:35:36;2.40;99.90
46400;DHT22;32104;50.838;4.388;2023-01-20T03:38:05;2.40;99.90
46400;DHT22;32104;50.838;4.388;2023-01-20T03:40:40;2.30;99.90
46400;DHT22;32104;50.838;4.388;2023-01-20T03:43:52;2.40;99.90
46400;DHT22;32104;50.838;4.388;2023-01-20T03:46:26;2.50;99.90
46400;DHT22;32104;50.838;4.388;2023-01-20T03:49:09;2.40;99.90
46400;DHT22;32104;50.838;4.388;2023-01-20T03:52:04;2.30;99.90
46400;DHT22;32104;50.838;4.388;2023-01-20T03:54:55;2.30;99.90
46400;DHT22;32104;50.838;4.388;2023-01-20T03:57:33;2.40;99.90
46400;DHT22;32104;50.838;4.388;2023-01-20T04:00:01;2.50;99.90
46400;DHT22;32104;50.838;4.388;2023-01-20T04:02:31;2.60;99.90
46400;DHT22;32104;50.838;4.388;2023-01-20T04:04:59;2.60;99.90
46400;DHT22;32104;50.838;4.388;2023-01-20T04:07:32;2.60;99.90
46400;DHT22;32104;50.838;4.388;2023-01-20T04:10:04;2.60;99.90
46400;DHT22;32104;50.838;4.388;2023-01-20T04:12:36;2.60;99.90
46400;DHT22;32104;50.838;4.388;2023-01-20T04:15:06;2.60;99.90
46400;DHT22;32104;50.838;4.388;2023-01-20T04:17:35;2.60;99.90
46400;DHT22;32104;50.838;4.388;2023-01-20T04:20:09;2.50;99.90
46400;DHT22;32104;50.838;4.388;2023-01-20T04:22:52;2.50;99.90
46400;DHT22;32104;50.838;4.388;2023-01-20T04:25:30;2.70;99.90
46400;DHT22;32104;50.838;4.388;2023-01-20T04:27:57;2.70;99.90
46400;DHT22;32104;50.838;4.388;2023-01-20T04:30:27;2.70;99.90
46400;DHT22;32104;50.838;4.388;2023-01-20T04:32:54;2.60;99.90
46400;DHT22;32104;50.838;4.388;2023-01-20T04:35:20;2.50;99.90
46400;DHT22;32104;50.838;4.388;2023-01-20T04:37:48;2.30;99.90
46400;DHT22;32104;50.838;4.388;2023-01-20T04:40:14;2.20;99.90
46400;DHT22;32104;50.838;4.388;2023-01-20T04:42:46;2.30;99.90
46400;DHT22;32104;50.838;4.388;2023-01-20T04:45:16;2.40;99.90
46400;DHT22;32104;50.838;4.388;2023-01-20T04:47:44;2.50;99.90
46400;DHT22;32104;50.838;4.388;2023-01-20T04:50:13;2.50;99.90
46400;DHT22;32104;50.838;4.388;2023-01-20T04:52:45;2.50;99.90
46400;DHT22;32104;50.838;4.388;2023-01-20T04:55:15;2.50;99.90
46400;DHT22;32104;50.838;4.388;2023-01-20T04:57:41;2.70;99.90
46400;DHT22;32104;50.838;4.388;2023-01-20T05:00:10;2.60;99.90
46400;DHT22;32104;50.838;4.388;2023-01-20T05:02:39;2.50;99.90
46400;DHT22;32104;50.838;4.388;2023-01-20T05:05:09;2.40;99.90
46400;DHT22;32104;50.838;4.388;2023-01-20T05:07:40;2.50;99.90
46400;DHT22;32104;50.838;4.388;2023-01-20T05:10:06;2.60;99.90
46400;DHT22;32104;50.838;4.388;2023-01-20T05:12:36;2.50;99.90
46400;DHT22;32104;50.838;4.388;2023-01-20T05:15:02;2.50;99.90
46400;DHT22;32104;50.838;4.388;2023-01-20T05:17:28;2.60;99.90
46400;DHT22;32104;50.838;4.388;2023-01-20T05:19:55;2.60;99.90
46400;DHT22;32104;50.838;4.388;2023-01-20T05:22:23;2.50;99.90
46400;DHT22;32104;50.838;4.388;2023-01-20T05:24:52;2.40;99.90
46400;DHT22;32104;50.838;4.388;2023-01-20T05:27:20;2.40;99.90
46400;DHT22;32104;50.838;4.388;2023-01-20T05:29:49;2.40;99.90
46400;DHT22;32104;50.838;4.388;2023-01-20T05:32:17;2.40;99.90
46400;DHT22;32104;50.838;4.388;2023-01-20T05:34:46;2.40;99.90
46400;DHT22;32104;50.838;4.388;2023-01-20T05:37:12;2.50;99.90
46400;DHT22;32104;50.838;4.388;2023-01-20T05:39:38;2.40;99.90
46400;DHT22;32104;50.838;4.388;2023-01-20T05:42:04;2.30;99.90
46400;DHT22;32104;50.838;4.388;2023-01-20T05:44:32;2.30;99.90
46400;DHT22;32104;50.838;4.388;2023-01-20T05:46:58;2.30;99.90
46400;DHT22;32104;50.838;4.388;2023-01-20T05:49:24;2.30;99.90
46400;DHT22;32104;50.838;4.388;2023-01-20T05:51:50;2.40;99.90
46400;DHT22;32104;50.838;4.388;2023-01-20T05:54:26;2.40;99.90
46400;DHT22;32104;50.838;4.388;2023-01-20T05:56:52;2.40;99.90
46400;DHT22;32104;50.838;4.388;2023-01-20T05:59:18;2.30;99.90
46400;DHT22;32104;50.838;4.388;2023-01-20T06:01:44;2.40;99.90
46400;DHT22;32104;50.838;4.388;2023-01-20T06:04:11;2.40;99.90
46400;DHT22;32104;50.838;4.388;2023-01-20T06:06:39;2.40;99.90
46400;DHT22;32104;50.838;4.388;2023-01-20T06:09:08;2.40;99.90
46400;DHT22;32104;50.838;4.388;2023-01-20T06:11:38;2.40;99.90
46400;DHT22;32104;50.838;4.388;2023-01-20T06:14:06;2.40;99.90
46400;DHT22;32104;50.838;4.388;2023-01-20T06:16:32;2.40;99.90
46400;DHT22;32104;50.838;4.388;2023-01-20T06:19:01;2.50;99.90
46400;DHT22;32104;50.838;4.388;2023-01-20T06:21:29;2.60;99.90
46400;DHT22;32104;50.838;4.388;2023-01-20T06:23:55;2.50;99.90
46400;DHT22;32104;50.838;4.388;2023-01-20T06:26:21;2.40;99.90
46400;DHT22;32104;50.838;4.388;2023-01-20T06:28:57;2.60;99.90
46400;DHT22;32104;50.838;4.388;2023-01-20T06:31:33;2.70;99.90
46400;DHT22;32104;50.838;4.388;2023-01-20T06:34:09;2.80;99.90
46400;DHT22;32104;50.838;4.388;2023-01-20T06:36:36;2.70;99.90
46400;DHT22;32104;50.838;4.388;2023-01-20T06:39:04;2.60;99.90
46400;DHT22;32104;50.838;4.388;2023-01-20T06:41:33;2.60;99.90
46400;DHT22;32104;50.838;4.388;2023-01-20T06:44:07;2.50;99.90
46400;DHT22;32104;50.838;4.388;2023-01-20T06:46:33;2.50;99.90
46400;DHT22;32104;50.838;4.388;2023-01-20T06:49:01;2.50;99.90
46400;DHT22;32104;50.838;4.388;2023-01-20T06:51:29;2.50;99.90
46400;DHT22;32104;50.838;4.388;2023-01-20T06:53:56;2.50;99.90
46400;DHT22;32104;50.838;4.388;2023-01-20T06:56:29;2.60;99.90
46400;DHT22;32104;50.838;4.388;2023-01-20T06:58:56;2.60;99.90
46400;DHT22;32104;50.838;4.388;2023-01-20T07:01:27;2.50;99.90
46400;DHT22;32104;50.838;4.388;2023-01-20T07:11:11;2.60;99.90
46400;DHT22;32104;50.838;4.388;2023-01-20T07:13:57;2.70;99.90
46400;DHT22;32104;50.838;4.388;2023-01-20T07:16:23;2.70;99.90
46400;DHT22;32104;50.838;4.388;2023-01-20T07:28:00;2.70;99.90
46400;DHT22;32104;50.838;4.388;2023-01-20T07:40:03;2.80;99.90
46400;DHT22;32104;50.838;4.388;2023-01-20T07:42:36;2.90;99.90
46400;DHT22;32104;50.838;4.388;2023-01-20T07:45:15;2.80;99.90
46400;DHT22;32104;50.838;4.388;2023-01-20T07:47:42;2.90;99.90
46400;DHT22;32104;50.838;4.388;2023-01-20T08:05:43;2.80;99.90
46400;DHT22;32104;50.838;4.388;2023-01-20T17:35:14;4.80;99.90
46400;DHT22;32104;50.838;4.388;2023-01-20T17:38:08;5.00;99.90
46400;DHT22;32104;50.838;4.388;2023-01-20T17:43:18;5.00;99.90
46400;DHT22;32104;50.838;4.388;2023-01-20T17:48:55;4.90;99.90
46400;DHT22;32104;50.838;4.388;2023-01-20T17:51:22;4.90;99.90
46400;DHT22;32104;50.838;4.388;2023-01-20T17:53:48;4.90;99.90
46400;DHT22;32104;50.838;4.388;2023-01-20T17:56:20;5.00;99.90
46400;DHT22;32104;50.838;4.388;2023-01-20T17:58:59;5.10;99.90
46400;DHT22;32104;50.838;4.388;2023-01-20T18:01:36;5.10;99.90
46400;DHT22;32104;50.838;4.388;2023-01-20T18:04:05;5.20;99.90
46400;DHT22;32104;50.838;4.388;2023-01-20T18:06:40;5.20;99.90
